»·PEaware :: FDX5954 KTUS-KPHX

FDX5954 :: KTUS-KPHX

FLIGHT INFORMATION

Flight Status: Arrived
Operator:
Federal Express
More flights by this operator :: More flights under this callsign
Pilot: Joshua M. (19482)
Aircraft: BOEING 737-800
(B738)
More flights by this aircraft type
Origin: KTUS Tucson Intl
United States
Destination: KPHX Phoenix Sky Harbor Intl
United States
More flights between these airports :: More routes between these airports
Route: +WLDKT3 HOTTT KOOLY KOOLY4
File this flight plan on PilotEdge
Remarks: Outdated FMC Default XPlane
Altitude:
(Current/Filed)
190,000ft
Speed:
(Current/Filed)
450kts
Departed: 01-Aug-18 06:20 PM
Arrived: 01-Aug-18 06:59 PM
Distance/Time
Traveled:
96nm/0:39
Distance/Time
To Go:
Arrived

Flight Plot

Page will automatically refresh every two minutes.

Flight plan parsing failed; only flown route is shown


Map Options




Map Legend


Flown Route
Filed Route
Departure Airport
Arrival Airport
Navaid (VOR, NDB)
Fix

Horizontal Profiles

Position Reports

Time Latitude Longitude Heading Altitude Ground
Speed
01-Aug-18 17:59 32.118630 -110.937224 40 2651ft 0kts
01-Aug-18 18:00 32.118630 -110.937224 40 2651ft 0kts
01-Aug-18 18:01 32.118630 -110.937224 40 2651ft 0kts
01-Aug-18 18:02 32.118630 -110.937224 40 2651ft 0kts
01-Aug-18 18:03 32.118630 -110.937224 40 2651ft 0kts
01-Aug-18 18:04 32.118630 -110.937224 40 2651ft 0kts
01-Aug-18 18:05 32.118630 -110.937224 40 2651ft 0kts
01-Aug-18 18:06 32.118630 -110.937224 40 2651ft 0kts
01-Aug-18 18:07 32.118630 -110.937224 40 2651ft 0kts
01-Aug-18 18:08 32.118630 -110.937224 40 2651ft 0kts
01-Aug-18 18:09 32.118627 -110.937228 39 2651ft 0kts
01-Aug-18 18:10 32.118471 -110.937586 63 2651ft 2kts
01-Aug-18 18:11 32.118270 -110.938076 55 2651ft 1kts
01-Aug-18 18:12 32.118239 -110.938115 41 2651ft 0kts
01-Aug-18 18:13 32.118239 -110.938115 41 2651ft 0kts
01-Aug-18 18:14 32.118248 -110.938105 40 2651ft 0kts
01-Aug-18 18:15 32.118332 -110.937929 99 2651ft 1kts
01-Aug-18 18:16 32.117732 -110.937842 210 2651ft 5kts
01-Aug-18 18:17 32.115630 -110.936319 131 2651ft 21kts
01-Aug-18 18:18 32.110756 -110.930587 136 2651ft 25kts
01-Aug-18 18:19 32.107051 -110.926309 136 2651ft 19kts
01-Aug-18 18:20 32.102629 -110.922710 224 2651ft 14kts
01-Aug-18 18:21 32.107299 -110.929069 315 2651ft 108kts
01-Aug-18 18:22 32.140148 -110.968462 311 3254ft 240kts
01-Aug-18 18:23 32.191486 -111.028666 313 6219ft 276kts
01-Aug-18 18:24 32.254330 -111.061101 3 9034ft 282kts
01-Aug-18 18:25 32.332666 -111.054168 5 11499ft 292kts
01-Aug-18 18:26 32.407240 -111.045828 6 13560ft 299kts
01-Aug-18 18:27 32.480736 -111.037344 6 15383ft 306kts
01-Aug-18 18:28 32.562622 -111.042837 348 16511ft 338kts
01-Aug-18 18:29 32.644102 -111.064740 347 17083ft 354kts
01-Aug-18 18:30 32.739675 -111.082552 343 17117ft 349kts
01-Aug-18 18:31 32.831971 -111.114964 345 15202ft 345kts
01-Aug-18 18:32 32.898168 -111.186362 302 14678ft 320kts
01-Aug-18 18:33 32.942316 -111.277551 299 13087ft 314kts
01-Aug-18 18:34 32.983988 -111.367543 299 12118ft 309kts
01-Aug-18 18:35 33.023552 -111.447795 302 12057ft 308kts
01-Aug-18 18:36 33.064720 -111.528048 301 10817ft 300kts
01-Aug-18 18:37 33.121240 -111.583929 333 10029ft 283kts
01-Aug-18 18:38 33.181441 -111.618196 334 9134ft 249kts
01-Aug-18 18:39 33.238696 -111.650163 332 7732ft 237kts
01-Aug-18 18:40 33.295473 -111.683281 332 5987ft 223kts
01-Aug-18 18:41 33.347312 -111.713559 332 5079ft 210kts
01-Aug-18 18:42 33.396567 -111.742849 321 4968ft 185kts
01-Aug-18 18:43 33.420896 -111.794598 294 4021ft 183kts
01-Aug-18 18:44 33.428344 -111.846842 256 3322ft 177kts
01-Aug-18 18:45 33.429886 -111.892950 269 2324ft 154kts
01-Aug-18 18:46 33.428688 -111.936608 267 1940ft 134kts
01-Aug-18 18:47 33.428623 -111.978953 273 1509ft 150kts
01-Aug-18 18:48 33.428842 -112.017808 271 1145ft 135kts
01-Aug-18 18:49 33.428404 -112.069446 270 2534ft 183kts
01-Aug-18 18:50 33.409524 -112.121678 193 4606ft 196kts
01-Aug-18 18:51 33.359993 -112.092671 142 4999ft 230kts
01-Aug-18 18:52 33.310278 -112.044712 141 4993ft 232kts
01-Aug-18 18:53 33.281784 -111.987866 71 5035ft 187kts
01-Aug-18 18:54 33.309840 -111.940604 50 3558ft 171kts
01-Aug-18 18:55 33.350184 -111.918557 9 2031ft 158kts
01-Aug-18 18:56 33.391466 -111.917139 339 2016ft 150kts
01-Aug-18 18:57 33.426247 -111.937009 291 1873ft 146kts
01-Aug-18 18:58 33.428351 -111.981448 271 1473ft 150kts
01-Aug-18 18:59 33.428846 -112.019692 271 1142ft 83kts
01-Aug-18 19:00 33.428050 -112.026914 163 1142ft 3kts
01-Aug-18 19:01 33.427764 -112.024424 89 1142ft 18kts
01-Aug-18 19:02 33.427353 -112.018602 164 1142ft 19kts

Navigation Log

Ident Type
Flight plan parsing failed, navigation log unavailable